NCAR-RAP Real-Time Weather Data

Output produced by METARs form (21 May 2019  10:43 UTC)
found at http://weather.rap.ucar.edu/surface/
 
RJNW 211000Z 26007KT 9999 FEW030 SCT/// 14/10 Q1006
RJNW 210900Z 22009KT 9999 FEW030 BKN/// 17/10 Q1005
RJNW 210800Z 26009KT 9999 FEW030 BKN/// 17/09 Q1004
RJNW 210700Z 25009KT 230V300 9999 FEW030 BKN/// 18/08 Q1004
RJNW 210600Z 25011KT 220V280 9999 FEW030 BKN/// 19/07 Q1004
RJNW 210500Z 24010KT 200V260 9999 FEW030 BKN/// 20/08 Q1004
RJNW 210400Z 25010KT 210V300 9999 FEW030 SCT/// 19/07 Q1004
RJNW 210300Z 24014KT 9999 FEW020 BKN/// 20/10 Q1004
RJNW 210200Z 22012KT 9999 FEW015 BKN/// 18/12 Q1005
RJNW 210100Z 22007KT 180V250 9999 FEW007 SCT015 BKN/// 16/13 Q1004
RJNW 210000Z 23007KT 7000 FEW000 SCT003 BKN006 15/13 Q1005
RJNW 202300Z 22006KT 5000 BR FEW000 SCT003 BKN060 14/13 Q1005
RJNW 201000Z 06001KT 9999 FEW030 BKN070 BKN100 19/15 Q1005
RJNW 200900Z 34003KT 290V360 9999 FEW030 SCT070 BKN120 19/14 Q1004
RJNW 200800Z 33003KT 290V040 9999 -SHRA FEW040 BKN080 BKN/// 21/12 Q1005
RJNW 200700Z 30005KT 240V360 9999 -SHRA FEW025 SCT040 BKN080 22/11 Q1005
RJNW 200600Z 31004KT 270V350 CAVOK 25/10 Q1005
RJNW 200500Z 19005KT 120V260 CAVOK 27/10 Q1005
RJNW 200400Z 10005KT 060V150 CAVOK 26/10 Q1006
RJNW 200300Z 11006KT 080V140 9999 FEW030 SCT150 BKN/// 24/11 Q1007
RJNW 200200Z 10006KT 9999 FEW030 SCT120 BKN150 22/12 Q1008
RJNW 200100Z 14007KT 090V190 9999 FEW030 SCT100 BKN120 23/10 Q1008
RJNW 200000Z 13007KT 090V170 9999 FEW030 SCT/// 23/10 Q1009
RJNW 192300Z 13010KT 090V160 9999 FEW030 21/09 Q1010
RJNW 191000Z 02003KT CAVOK 19/10 Q1016
RJNW 190900Z VRB02KT CAVOK 22/10 Q1016
RJNW 190800Z 21006KT CAVOK 22/09 Q1016
RJNW 190700Z 23009KT 9999 FEW040 BKN/// 25/10 Q1016
RJNW 190600Z 07004KT 010V150 CAVOK 25/07 Q1015
RJNW 190500Z VRB04KT 9999 FEW030 BKN/// 26/07 Q1016
RJNW 190400Z 11009KT 9999 FEW030 24/08 Q1016
RJNW 190300Z 12008KT 090V170 9999 FEW030 25/09 Q1017
RJNW 190200Z VRB02KT 9999 FEW030 SCT/// 23/09 Q1018
RJNW 190100Z 17004KT 080V250 9999 FEW030 BKN/// 22/08 Q1018
RJNW 190000Z VRB04KT CAVOK 21/11 Q1019
RJNW 182300Z 11005KT 060V130 CAVOK 20/12 Q1019